»·PEaware :: DCM424 7S7-KTEX

DCM424 :: 7S7-KTEX

FLIGHT INFORMATION

Flight Status: Arrived
Operator: DotCom
More flights by this operator :: More flights under this callsign
Pilot: Ben H. (9170)
Aircraft: GULFSTREAM 690 COMMANDER 840/900
(AC90)
More flights by this aircraft type
Origin: 7S7 Valier
United States
Destination: KTEX Telluride Regl
United States
More flights between these airports :: More routes between these airports
Route: CHOTE V365 HLN V21 DBS V520 JAC V328 BPI V328 OCS V391 VEL V391 JNC V382 ETL
File this flight plan on PilotEdge
Remarks:
Altitude:
(Current/Filed)
25,000ft
Speed:
(Current/Filed)
280kts
Departed: 26-Jan-19 08:32 AM
Arrived: 26-Jan-19 10:39 AM
Distance/Time
Traveled:
649nm/2:07
Distance/Time
To Go:
Arrived

Flight Plot

Page will automatically refresh every two minutes.

Flight plan parsing failed; only flown route is shown


Map Options




Map Legend


Flown Route
Filed Route
Departure Airport
Arrival Airport
Navaid (VOR, NDB)
Fix

Horizontal Profiles

Position Reports

Time Latitude Longitude Heading Altitude Ground
Speed
26-Jan-19 08:19 48.302022 -112.252569 178 3823ft 0kts
26-Jan-19 08:20 48.302022 -112.252569 178 3823ft 0kts
26-Jan-19 08:21 48.302022 -112.252570 178 3823ft 0kts
26-Jan-19 08:22 48.302022 -112.252570 178 3823ft 0kts
26-Jan-19 08:23 48.302022 -112.252570 178 3823ft 0kts
26-Jan-19 08:24 48.302022 -112.252570 178 3823ft 0kts
26-Jan-19 08:25 48.301585 -112.252980 194 3823ft 8kts
26-Jan-19 08:26 48.300709 -112.253344 163 3822ft 7kts
26-Jan-19 08:27 48.300247 -112.256265 171 3821ft 4kts
26-Jan-19 08:28 48.300196 -112.256138 86 3821ft 0kts
26-Jan-19 08:29 48.300196 -112.256138 86 3821ft 0kts
26-Jan-19 08:30 48.300196 -112.256138 86 3821ft 0kts
26-Jan-19 08:31 48.300196 -112.256138 86 3821ft 0kts
26-Jan-19 08:32 48.298752 -112.224039 89 4448ft 184kts
26-Jan-19 08:33 48.262559 -112.176375 179 6966ft 194kts
26-Jan-19 08:34 48.209879 -112.186041 224 9288ft 181kts
26-Jan-19 08:35 48.165126 -112.224669 195 10934ft 211kts
26-Jan-19 08:35 48.114672 -112.224573 179 12555ft 225kts
26-Jan-19 08:37 48.040110 -112.213812 179 14890ft 239kts
26-Jan-19 08:38 47.972370 -112.204087 179 16636ft 250kts
26-Jan-19 08:38 47.913552 -112.195706 180 17920ft 259kts
26-Jan-19 08:39 47.841512 -112.185464 180 19215ft 268kts
26-Jan-19 08:40 47.766347 -112.174776 180 20452ft 276kts
26-Jan-19 08:41 47.689432 -112.163869 180 21564ft 284kts
26-Jan-19 08:42 47.609748 -112.150043 177 22552ft 292kts
26-Jan-19 08:43 47.528155 -112.133222 178 23426ft 299kts
26-Jan-19 08:44 47.445080 -112.116653 178 24200ft 304kts
26-Jan-19 08:45 47.360399 -112.099919 178 24886ft 309kts
26-Jan-19 08:46 47.273820 -112.082919 178 25281ft 322kts
26-Jan-19 08:47 47.183546 -112.065070 178 25321ft 329kts
26-Jan-19 08:48 47.091674 -112.047033 178 25326ft 335kts
26-Jan-19 08:49 46.998821 -112.028933 177 25344ft 339kts
26-Jan-19 08:50 46.904431 -112.010556 174 25344ft 343kts
26-Jan-19 08:51 46.812317 -111.968661 161 25327ft 346kts
26-Jan-19 08:52 46.721144 -111.923789 163 25330ft 345kts
26-Jan-19 08:53 46.629703 -111.880641 163 25332ft 346kts
26-Jan-19 08:54 46.538208 -111.837676 163 25331ft 346kts
26-Jan-19 08:55 46.445857 -111.794399 163 25324ft 347kts
26-Jan-19 08:56 46.354296 -111.751641 163 25324ft 348kts
26-Jan-19 08:57 46.262230 -111.708829 163 25330ft 346kts
26-Jan-19 08:58 46.170729 -111.666464 163 25345ft 344kts
26-Jan-19 08:59 46.079327 -111.624241 163 25363ft 344kts
26-Jan-19 09:00 45.988174 -111.582272 163 25373ft 345kts
26-Jan-19 09:01 45.896926 -111.540404 163 25367ft 345kts
26-Jan-19 09:02 45.805441 -111.498577 163 25360ft 343kts
26-Jan-19 09:03 45.714350 -111.457075 163 25362ft 342kts
26-Jan-19 09:04 45.623987 -111.416043 163 25370ft 342kts
26-Jan-19 09:05 45.533338 -111.375016 163 25383ft 342kts
26-Jan-19 09:06 45.443247 -111.334380 164 25397ft 342kts
26-Jan-19 09:07 45.354009 -111.294267 164 25398ft 342kts
26-Jan-19 09:08 45.262923 -111.253459 164 25389ft 343kts
26-Jan-19 09:09 45.171879 -111.212806 164 25396ft 343kts
26-Jan-19 09:10 45.080989 -111.172359 164 25395ft 343kts
26-Jan-19 09:11 44.989896 -111.131956 163 25383ft 343kts
26-Jan-19 09:12 44.899300 -111.091903 163 25385ft 343kts
26-Jan-19 09:13 44.828013 -111.060477 164 25368ft 340kts
26-Jan-19 09:14 44.785320 -111.041700 164 25369ft 339kts
26-Jan-19 09:15 44.719352 -111.012744 164 25371ft 338kts
26-Jan-19 09:16 44.581559 -110.952481 165 25373ft 337kts
26-Jan-19 09:17 44.460756 -110.899897 165 25376ft 336kts
26-Jan-19 09:18 44.371083 -110.861010 166 25386ft 336kts
26-Jan-19 09:19 44.282050 -110.822528 165 25393ft 336kts
26-Jan-19 09:20 44.192595 -110.783981 165 25411ft 336kts
26-Jan-19 09:21 44.103486 -110.745708 165 25422ft 337kts
26-Jan-19 09:22 44.013519 -110.707185 165 25417ft 338kts
26-Jan-19 09:23 43.923394 -110.668716 165 25411ft 338kts
26-Jan-19 09:24 43.833312 -110.630386 165 25389ft 337kts
26-Jan-19 09:25 43.744369 -110.592666 165 25391ft 336kts
26-Jan-19 09:26 43.655007 -110.554889 165 25395ft 335kts
26-Jan-19 09:27 43.565310 -110.517085 165 25395ft 336kts
26-Jan-19 09:28 43.476266 -110.479672 165 25397ft 336kts
26-Jan-19 09:29 43.390670 -110.443814 165 25398ft 337kts
26-Jan-19 09:30 43.300915 -110.406328 165 25400ft 337kts
26-Jan-19 09:31 43.210941 -110.368868 165 25388ft 338kts
26-Jan-19 09:32 43.120624 -110.331382 166 25337ft 339kts
26-Jan-19 09:33 43.030329 -110.294022 166 25298ft 338kts
26-Jan-19 09:34 42.940188 -110.256858 163 25318ft 339kts
26-Jan-19 09:35 42.849647 -110.219621 161 25318ft 340kts
26-Jan-19 09:36 42.760749 -110.183167 161 25318ft 340kts
26-Jan-19 09:37 42.670301 -110.146194 161 25317ft 340kts
26-Jan-19 09:38 42.584233 -110.108031 148 25315ft 337kts
26-Jan-19 09:39 42.510665 -110.032204 132 25319ft 330kts
26-Jan-19 09:40 42.440271 -109.952509 132 25313ft 331kts
26-Jan-19 09:41 42.369537 -109.873106 133 25307ft 331kts
26-Jan-19 09:42 42.301410 -109.796972 132 25305ft 332kts
26-Jan-19 09:43 42.233349 -109.721141 133 25315ft 332kts
26-Jan-19 09:44 42.161913 -109.641773 133 25315ft 333kts
26-Jan-19 09:45 42.090275 -109.562428 133 25321ft 333kts
26-Jan-19 09:46 42.018675 -109.483366 133 25329ft 333kts
26-Jan-19 09:47 41.946594 -109.404009 133 25332ft 334kts
26-Jan-19 09:48 41.884158 -109.335466 133 25310ft 334kts
26-Jan-19 09:49 41.834966 -109.281621 133 25312ft 332kts
26-Jan-19 09:50 41.763434 -109.203478 133 25314ft 331kts
26-Jan-19 09:51 41.692136 -109.125813 133 25323ft 331kts
26-Jan-19 09:52 41.619330 -109.049040 145 25325ft 338kts
26-Jan-19 09:53 41.527968 -109.040188 203 25334ft 333kts
26-Jan-19 09:54 41.438228 -109.054772 176 25323ft 345kts
26-Jan-19 09:55 41.342692 -109.041508 176 25323ft 346kts
26-Jan-19 09:56 41.246688 -109.030040 176 25325ft 347kts
26-Jan-19 09:57 41.150083 -109.019187 176 25327ft 347kts
26-Jan-19 09:58 41.053571 -109.008410 178 25332ft 347kts
26-Jan-19 09:59 40.957627 -108.997717 179 25338ft 345kts
26-Jan-19 10:00 40.876960 -108.988762 180 25339ft 343kts
26-Jan-19 10:01 40.783389 -108.978400 180 25369ft 340kts
26-Jan-19 10:02 40.689341 -108.968026 180 25373ft 342kts
26-Jan-19 10:03 40.593581 -108.957421 180 25374ft 345kts
26-Jan-19 10:04 40.497616 -108.946866 180 25375ft 347kts
26-Jan-19 10:05 40.401378 -108.936328 180 25377ft 348kts
26-Jan-19 10:06 40.304873 -108.925790 180 25379ft 348kts
26-Jan-19 10:07 40.208423 -108.915288 180 25381ft 349kts
26-Jan-19 10:08 40.111288 -108.904747 180 25382ft 349kts
26-Jan-19 10:09 40.014378 -108.894255 180 25380ft 350kts
26-Jan-19 10:10 39.917323 -108.883782 180 25384ft 350kts
26-Jan-19 10:11 39.823870 -108.873717 180 25372ft 348kts
26-Jan-19 10:12 39.727552 -108.863386 180 25378ft 347kts
26-Jan-19 10:13 39.630879 -108.853047 180 25382ft 347kts
26-Jan-19 10:14 39.534814 -108.842799 180 25384ft 348kts
26-Jan-19 10:15 39.438146 -108.832512 180 25386ft 348kts
26-Jan-19 10:16 39.341383 -108.822243 180 25388ft 349kts
26-Jan-19 10:17 39.244789 -108.812020 180 25390ft 349kts
26-Jan-19 10:18 39.147535 -108.801756 180 25392ft 349kts
26-Jan-19 10:19 39.051143 -108.786343 165 25394ft 354kts
26-Jan-19 10:20 38.959394 -108.739625 152 25396ft 353kts
26-Jan-19 10:22 38.877877 -108.696143 149 25375ft 343kts
26-Jan-19 10:23 38.822335 -108.666756 150 25399ft 335kts
26-Jan-19 10:24 38.747335 -108.627061 150 25343ft 324kts
26-Jan-19 10:25 38.664067 -108.583197 150 24590ft 321kts
26-Jan-19 10:26 38.580499 -108.539339 151 23317ft 328kts
26-Jan-19 10:27 38.495943 -108.495028 151 21857ft 326kts
26-Jan-19 10:28 38.412906 -108.451641 151 20461ft 320kts
26-Jan-19 10:29 38.331362 -108.409145 152 19106ft 312kts
26-Jan-19 10:30 38.252027 -108.367976 152 17784ft 299kts
26-Jan-19 10:31 38.177825 -108.329639 153 17023ft 272kts
26-Jan-19 10:32 38.111716 -108.296057 153 16451ft 267kts
26-Jan-19 10:33 38.047480 -108.253743 129 15582ft 256kts
26-Jan-19 10:34 38.012620 -108.180922 109 15054ft 242kts
26-Jan-19 10:35 37.994165 -108.107044 99 14121ft 234kts
26-Jan-19 10:36 37.979390 -108.032950 102 12371ft 209kts
26-Jan-19 10:37 37.967003 -107.973139 101 10826ft 154kts
26-Jan-19 10:38 37.958105 -107.929837 101 9260ft 124kts
26-Jan-19 10:39 37.952523 -107.902533 105 9078ft 29kts
26-Jan-19 10:39 37.954135 -107.902542 26 9078ft 6kts
26-Jan-19 10:40 37.954172 -107.902832 107 9078ft 0kts
26-Jan-19 10:42 37.954172 -107.902832 106 9078ft 0kts
26-Jan-19 10:43 37.954172 -107.902832 106 9078ft 0kts

Navigation Log

Ident Type
Flight plan parsing failed, navigation log unavailable